createdAt,value
2019-03-03T00:00:40.758Z,963.33
2019-03-03T00:01:40.693Z,963.29
2019-03-03T00:02:40.637Z,963.31
2019-03-03T00:03:40.566Z,963.27
2019-03-03T00:04:40.528Z,963.30
2019-03-03T00:05:40.443Z,963.28
2019-03-03T00:06:40.367Z,963.22
2019-03-03T00:07:40.302Z,963.23
2019-03-03T00:08:40.232Z,963.24
2019-03-03T00:09:40.172Z,963.22
2019-03-03T00:10:40.106Z,963.18
2019-03-03T00:11:40.044Z,963.20
2019-03-03T00:12:39.976Z,963.19
2019-03-03T00:13:39.914Z,963.19
2019-03-03T00:14:39.847Z,963.22
2019-03-03T00:15:39.787Z,963.19
2019-03-03T00:16:39.727Z,963.15
2019-03-03T00:17:39.655Z,963.17
2019-03-03T00:18:39.583Z,963.21
2019-03-03T00:19:39.522Z,963.15
2019-03-03T00:20:39.457Z,963.16
2019-03-03T00:21:39.397Z,963.16
2019-03-03T00:22:39.328Z,963.17
2019-03-03T00:23:39.266Z,963.19
2019-03-03T00:24:39.199Z,963.21
2019-03-03T00:25:39.937Z,963.19
2019-03-03T00:26:39.076Z,963.23
2019-03-03T00:27:39.008Z,963.18
2019-03-03T00:28:38.935Z,963.20
2019-03-03T00:29:38.872Z,963.09
2019-03-03T00:30:38.809Z,963.19
2019-03-03T00:31:38.746Z,963.18
2019-03-03T00:32:38.679Z,963.19
2019-03-03T00:33:38.612Z,963.16
2019-03-03T00:34:38.543Z,963.22
2019-03-03T00:35:38.480Z,963.20
2019-03-03T00:36:38.422Z,963.22
2019-03-03T00:37:38.356Z,963.23
2019-03-03T00:38:38.295Z,963.21
2019-03-03T00:39:38.219Z,963.21
2019-03-03T00:40:38.157Z,963.28
2019-03-03T00:41:38.091Z,963.31
2019-03-03T00:42:38.029Z,963.29
2019-03-03T00:43:37.964Z,963.29
2019-03-03T00:44:37.905Z,963.26
2019-03-03T00:45:37.827Z,963.27
2019-03-03T00:46:37.767Z,963.29
2019-03-03T00:47:37.716Z,963.32
2019-03-03T00:48:37.637Z,963.29
2019-03-03T00:49:37.573Z,963.35
2019-03-03T00:50:37.508Z,963.33
2019-03-03T00:51:37.442Z,963.34
2019-03-03T00:52:37.381Z,963.29
2019-03-03T00:53:37.320Z,963.34
2019-03-03T00:54:37.252Z,963.33
2019-03-03T00:55:37.181Z,963.34
2019-03-03T00:56:37.118Z,963.33
2019-03-03T00:57:37.053Z,963.32
2019-03-03T00:58:36.986Z,963.31
2019-03-03T00:59:36.922Z,963.34
2019-03-03T01:00:36.857Z,963.32
2019-03-03T01:01:36.793Z,963.27
2019-03-03T01:02:36.733Z,963.30
2019-03-03T01:03:36.665Z,963.31
2019-03-03T01:04:36.604Z,963.25
2019-03-03T01:05:36.536Z,963.27
2019-03-03T01:06:36.471Z,963.22
2019-03-03T01:07:36.405Z,963.24
2019-03-03T01:08:36.338Z,963.23
2019-03-03T01:09:36.273Z,963.27
2019-03-03T01:10:36.209Z,963.24
2019-03-03T01:11:36.142Z,963.27
2019-03-03T01:12:36.072Z,963.25
2019-03-03T01:13:36.013Z,963.30
2019-03-03T01:14:35.947Z,963.27
2019-03-03T01:15:35.882Z,963.25
2019-03-03T01:16:35.816Z,963.26
2019-03-03T01:17:35.772Z,963.26
2019-03-03T01:18:35.692Z,963.26
2019-03-03T01:19:35.624Z,963.27
2019-03-03T01:20:35.558Z,963.26
2019-03-03T01:21:35.497Z,963.29
2019-03-03T01:22:35.433Z,963.27
2019-03-03T01:23:35.362Z,963.28
2019-03-03T01:24:35.300Z,963.29
2019-03-03T01:25:35.232Z,963.30
2019-03-03T01:26:35.168Z,963.25
2019-03-03T01:27:35.108Z,963.27
2019-03-03T01:28:35.037Z,963.23
2019-03-03T01:29:34.979Z,963.26
2019-03-03T01:30:34.912Z,963.24
2019-03-03T01:31:34.863Z,963.17
2019-03-03T01:32:34.774Z,963.18
2019-03-03T01:33:34.716Z,963.15
2019-03-03T01:34:34.649Z,963.18
2019-03-03T01:35:34.584Z,963.21
2019-03-03T01:36:34.517Z,963.14
2019-03-03T01:37:34.455Z,963.14
2019-03-03T01:38:34.391Z,963.17
2019-03-03T01:39:34.323Z,963.17
2019-03-03T01:40:34.261Z,963.18
2019-03-03T01:41:34.196Z,963.18
2019-03-03T01:42:34.132Z,963.16
2019-03-03T01:43:34.064Z,963.10
2019-03-03T01:44:33.998Z,963.13
2019-03-03T01:45:33.940Z,963.18
2019-03-03T01:46:33.868Z,963.13
2019-03-03T01:47:33.804Z,963.15
2019-03-03T01:48:33.740Z,963.17
2019-03-03T01:49:33.671Z,963.12
2019-03-03T01:50:33.611Z,963.13
2019-03-03T01:51:33.550Z,963.14
2019-03-03T01:52:33.478Z,963.15
2019-03-03T01:53:33.413Z,963.14
2019-03-03T01:54:33.369Z,963.16
2019-03-03T01:55:33.284Z,963.15
2019-03-03T01:56:33.220Z,963.10
2019-03-03T01:57:33.153Z,963.09
2019-03-03T01:58:33.089Z,963.07
2019-03-03T01:59:33.022Z,963.08
2019-03-03T02:00:32.955Z,963.08
2019-03-03T02:01:32.895Z,963.05
2019-03-03T02:02:32.827Z,963.03
2019-03-03T02:03:32.764Z,963.08
2019-03-03T02:04:32.699Z,963.01
2019-03-03T02:05:32.641Z,962.98
2019-03-03T02:06:32.574Z,963.00
2019-03-03T02:07:32.505Z,962.97
2019-03-03T02:08:32.439Z,962.99
2019-03-03T02:09:32.368Z,963.00
2019-03-03T02:10:32.306Z,962.97
2019-03-03T02:11:32.241Z,962.98
2019-03-03T02:12:32.178Z,962.97
2019-03-03T02:13:32.111Z,962.94
2019-03-03T02:14:32.048Z,962.98
2019-03-03T02:15:31.981Z,962.94
2019-03-03T02:16:31.912Z,962.99
2019-03-03T02:17:31.868Z,962.95
2019-03-03T02:18:31.792Z,962.95
2019-03-03T02:19:31.719Z,962.96
2019-03-03T02:20:31.657Z,962.89
2019-03-03T02:21:31.593Z,962.97
2019-03-03T02:22:31.528Z,962.96
2019-03-03T02:23:31.462Z,962.94
2019-03-03T02:24:31.395Z,962.93
2019-03-03T02:25:31.336Z,962.89
2019-03-03T02:26:31.266Z,962.90
2019-03-03T02:27:31.198Z,962.91
2019-03-03T02:28:31.146Z,962.91
2019-03-03T02:29:31.069Z,962.90
2019-03-03T02:30:31.020Z,962.88
2019-03-03T02:31:30.940Z,962.83
2019-03-03T02:32:30.878Z,962.85
2019-03-03T02:33:30.817Z,962.88
2019-03-03T02:34:30.749Z,962.88
2019-03-03T02:35:30.682Z,962.87
2019-03-03T02:36:30.612Z,962.88
2019-03-03T02:37:30.555Z,962.83
2019-03-03T02:38:30.484Z,962.85
2019-03-03T02:39:30.421Z,962.83
2019-03-03T02:40:30.362Z,962.77
2019-03-03T02:41:30.292Z,962.84
2019-03-03T02:42:30.240Z,962.83
2019-03-03T02:43:30.170Z,962.83
2019-03-03T02:44:30.096Z,962.84
2019-03-03T02:45:30.042Z,962.81
2019-03-03T02:46:29.980Z,962.80
2019-03-03T02:47:29.899Z,962.80
2019-03-03T02:48:29.838Z,962.81
2019-03-03T02:49:29.770Z,962.79
2019-03-03T02:50:29.704Z,962.76
2019-03-03T02:51:29.640Z,962.77
2019-03-03T02:52:29.574Z,962.75
2019-03-03T02:53:29.506Z,962.71
2019-03-03T02:54:29.460Z,962.74
2019-03-03T02:55:29.387Z,962.75
2019-03-03T02:56:29.315Z,962.77
2019-03-03T02:57:29.249Z,962.74
2019-03-03T02:58:29.184Z,962.76
2019-03-03T02:59:29.211Z,962.80
2019-03-03T03:00:29.066Z,962.82
2019-03-03T03:01:28.993Z,962.84
2019-03-03T03:02:28.933Z,962.81
2019-03-03T03:03:28.860Z,962.83
2019-03-03T03:04:28.807Z,962.83
2019-03-03T03:05:28.735Z,962.84
2019-03-03T03:06:28.667Z,962.79
2019-03-03T03:07:28.600Z,962.80
2019-03-03T03:08:28.539Z,962.78
2019-03-03T03:09:28.478Z,962.78
2019-03-03T03:10:28.414Z,962.75
2019-03-03T03:11:28.342Z,962.78
2019-03-03T03:12:28.285Z,962.76
2019-03-03T03:13:28.207Z,962.81
2019-03-03T03:14:28.147Z,962.81
2019-03-03T03:15:28.082Z,962.82
2019-03-03T03:16:28.028Z,962.82
2019-03-03T03:17:27.954Z,962.81
2019-03-03T03:18:27.888Z,962.78
2019-03-03T03:19:27.832Z,962.82
2019-03-03T03:20:27.754Z,962.80
2019-03-03T03:21:27.698Z,962.79
2019-03-03T03:22:27.628Z,962.79
2019-03-03T03:23:27.559Z,962.82
2019-03-03T03:24:27.504Z,962.80
2019-03-03T03:25:27.428Z,962.78
2019-03-03T03:26:27.367Z,962.81
2019-03-03T03:27:27.309Z,962.75
2019-03-03T03:28:27.242Z,962.80
2019-03-03T03:29:27.179Z,962.76
2019-03-03T03:30:27.107Z,962.73
2019-03-03T03:31:27.050Z,962.75
2019-03-03T03:32:26.986Z,962.75
2019-03-03T03:33:26.923Z,962.72
2019-03-03T03:34:26.848Z,962.76
2019-03-03T03:35:26.783Z,962.78
2019-03-03T03:36:26.718Z,962.78
2019-03-03T03:37:26.663Z,962.78
2019-03-03T03:38:26.588Z,962.82
2019-03-03T03:39:26.525Z,962.78
2019-03-03T03:40:26.453Z,962.81
2019-03-03T03:41:26.390Z,962.80
2019-03-03T03:42:26.337Z,962.84
2019-03-03T03:43:26.260Z,962.77
2019-03-03T03:44:26.197Z,962.77
2019-03-03T03:45:26.132Z,962.78
2019-03-03T03:46:26.073Z,962.81
2019-03-03T03:47:26.005Z,962.77
2019-03-03T03:48:25.949Z,962.74
2019-03-03T03:49:25.880Z,962.79
2019-03-03T03:50:25.801Z,962.76
2019-03-03T03:51:25.741Z,962.77
2019-03-03T03:52:25.672Z,962.78
2019-03-03T03:53:25.611Z,962.73
2019-03-03T03:54:25.569Z,962.71
2019-03-03T03:55:25.482Z,962.68
2019-03-03T03:56:25.417Z,962.74
2019-03-03T03:57:25.353Z,962.71
2019-03-03T03:58:25.291Z,962.69
2019-03-03T03:59:25.229Z,962.72
2019-03-03T04:00:25.156Z,962.65
2019-03-03T04:01:25.091Z,962.67
2019-03-03T04:02:25.026Z,962.67
2019-03-03T04:03:24.967Z,962.64
2019-03-03T04:04:24.895Z,962.67
2019-03-03T04:05:24.831Z,962.69
2019-03-03T04:06:24.774Z,962.69
2019-03-03T04:07:24.702Z,962.68
2019-03-03T04:08:24.637Z,962.67
2019-03-03T04:09:24.582Z,962.59
2019-03-03T04:10:24.504Z,962.63
2019-03-03T04:11:24.441Z,962.63
2019-03-03T04:12:24.379Z,962.68
2019-03-03T04:13:24.312Z,962.59
2019-03-03T04:14:24.265Z,962.61
2019-03-03T04:15:24.182Z,962.64
2019-03-03T04:16:24.124Z,962.45
2019-03-03T04:17:24.048Z,962.54
2019-03-03T04:18:23.986Z,962.54
2019-03-03T04:19:23.917Z,962.58
2019-03-03T04:20:23.860Z,962.51
2019-03-03T04:21:23.792Z,962.49
2019-03-03T04:22:23.727Z,962.44
2019-03-03T04:23:23.664Z,962.46
2019-03-03T04:24:23.608Z,962.41
2019-03-03T04:25:23.533Z,962.46
2019-03-03T04:26:23.469Z,962.41
2019-03-03T04:27:23.396Z,962.38
2019-03-03T04:28:23.343Z,962.40
2019-03-03T04:29:23.272Z,962.34
2019-03-03T04:30:23.206Z,962.30
2019-03-03T04:31:23.139Z,962.31
2019-03-03T04:32:23.070Z,962.40
2019-03-03T04:33:23.010Z,962.34
2019-03-03T04:34:22.942Z,962.36
2019-03-03T04:35:22.887Z,962.37
2019-03-03T04:36:22.821Z,962.34
2019-03-03T04:37:22.746Z,962.32
2019-03-03T04:38:22.686Z,962.33
2019-03-03T04:39:22.620Z,962.29
2019-03-03T04:40:22.554Z,962.30
2019-03-03T04:41:22.491Z,962.33
2019-03-03T04:42:22.427Z,962.36
2019-03-03T04:43:22.361Z,962.35
2019-03-03T04:44:22.297Z,962.46
2019-03-03T04:45:22.231Z,962.38
2019-03-03T04:46:22.177Z,962.38
2019-03-03T04:47:22.107Z,962.39
2019-03-03T04:48:22.034Z,962.37
2019-03-03T04:49:21.970Z,962.39
2019-03-03T04:50:21.905Z,962.32
2019-03-03T04:51:21.846Z,962.35
2019-03-03T04:52:21.775Z,962.37
2019-03-03T04:53:21.715Z,962.34
2019-03-03T04:54:21.642Z,962.37
2019-03-03T04:55:21.579Z,962.38
2019-03-03T04:56:21.514Z,962.36
2019-03-03T04:57:21.452Z,962.35
2019-03-03T04:58:21.386Z,962.38
2019-03-03T04:59:21.323Z,962.36
2019-03-03T05:00:21.276Z,962.36
2019-03-03T05:01:21.202Z,962.39
2019-03-03T05:02:21.136Z,962.40
2019-03-03T05:03:21.060Z,962.39
2019-03-03T05:04:20.994Z,962.41
2019-03-03T05:05:20.930Z,962.44
2019-03-03T05:06:20.864Z,962.42
2019-03-03T05:07:20.801Z,962.46
2019-03-03T05:08:20.737Z,962.43
2019-03-03T05:09:20.672Z,962.38
2019-03-03T05:10:20.611Z,962.40
2019-03-03T05:11:20.542Z,962.37
2019-03-03T05:12:20.489Z,962.39
2019-03-03T05:13:20.424Z,962.38
2019-03-03T05:14:20.344Z,962.33
2019-03-03T05:15:20.280Z,962.34
2019-03-03T05:16:20.214Z,962.37
2019-03-03T05:17:20.150Z,962.34
2019-03-03T05:18:20.084Z,962.31
2019-03-03T05:19:20.021Z,962.28
2019-03-03T05:20:19.959Z,962.27
2019-03-03T05:21:19.890Z,962.28
2019-03-03T05:22:19.828Z,962.28
2019-03-03T05:23:19.769Z,962.36
2019-03-03T05:24:19.697Z,962.30
2019-03-03T05:25:19.630Z,962.34
2019-03-03T05:26:19.567Z,962.35
2019-03-03T05:27:19.515Z,962.36
2019-03-03T05:28:19.444Z,962.33
2019-03-03T05:29:19.373Z,962.37
2019-03-03T05:30:19.319Z,962.31
2019-03-03T05:31:19.246Z,962.30
2019-03-03T05:32:19.177Z,962.28
2019-03-03T05:33:19.122Z,962.29
2019-03-03T05:34:19.046Z,962.30
2019-03-03T05:35:18.983Z,962.27
2019-03-03T05:36:18.925Z,962.31
2019-03-03T05:37:18.853Z,962.32
2019-03-03T05:38:18.794Z,962.28
2019-03-03T05:39:18.723Z,962.31
2019-03-03T05:40:18.662Z,962.20
2019-03-03T05:41:18.593Z,962.25
2019-03-03T05:42:18.534Z,962.23
2019-03-03T05:43:18.477Z,962.24
2019-03-03T05:44:18.398Z,962.26
2019-03-03T05:45:18.330Z,962.18
2019-03-03T05:46:18.268Z,962.24
2019-03-03T05:47:18.206Z,962.18
2019-03-03T05:48:18.145Z,962.16
2019-03-03T05:49:18.077Z,962.10
2019-03-03T05:50:18.018Z,962.07
2019-03-03T05:51:17.941Z,962.08
2019-03-03T05:52:17.882Z,962.11
2019-03-03T05:53:17.812Z,962.09
2019-03-03T05:54:17.747Z,962.07
2019-03-03T05:55:17.683Z,962.07
2019-03-03T05:56:19.021Z,962.12
2019-03-03T05:57:17.553Z,962.10
2019-03-03T05:58:17.485Z,962.05
2019-03-03T05:59:17.420Z,962.13
2019-03-03T06:00:17.365Z,962.07
2019-03-03T06:01:17.291Z,962.11
2019-03-03T06:02:17.225Z,962.09
2019-03-03T06:03:17.161Z,962.06
2019-03-03T06:04:17.098Z,962.08
2019-03-03T06:05:17.033Z,962.04
2019-03-03T06:06:16.969Z,962.05
2019-03-03T06:07:16.904Z,962.06
2019-03-03T06:08:16.831Z,962.04
2019-03-03T06:09:16.769Z,962.04
2019-03-03T06:10:16.706Z,962.03
2019-03-03T06:11:16.643Z,962.03
2019-03-03T06:12:16.577Z,962.04
2019-03-03T06:13:16.507Z,962.01
2019-03-03T06:14:16.447Z,962.02
2019-03-03T06:15:16.438Z,962.01
2019-03-03T06:16:16.326Z,962.00
2019-03-03T06:17:16.252Z,962.05
2019-03-03T06:18:16.181Z,962.02
2019-03-03T06:19:16.120Z,962.01
2019-03-03T06:20:16.055Z,962.01
2019-03-03T06:21:15.993Z,962.02
2019-03-03T06:22:15.924Z,962.05
2019-03-03T06:23:15.857Z,962.01
2019-03-03T06:24:15.802Z,962.05
2019-03-03T06:25:15.721Z,962.04
2019-03-03T06:26:15.662Z,962.10
2019-03-03T06:27:15.608Z,962.11
2019-03-03T06:28:15.530Z,962.15
2019-03-03T06:29:15.461Z,962.13
2019-03-03T06:30:15.405Z,962.15
2019-03-03T06:31:15.333Z,962.15
2019-03-03T06:32:15.275Z,962.11
2019-03-03T06:33:15.209Z,962.06
2019-03-03T06:34:15.141Z,962.04
2019-03-03T06:35:15.071Z,962.03
2019-03-03T06:36:15.010Z,962.04
2019-03-03T06:37:14.943Z,962.02
2019-03-03T06:38:14.881Z,962.04
2019-03-03T06:39:14.811Z,962.02
2019-03-03T06:40:14.744Z,962.05
2019-03-03T06:41:14.679Z,962.02
2019-03-03T06:42:14.613Z,962.05
2019-03-03T06:43:14.552Z,962.04
2019-03-03T06:44:14.486Z,962.08
2019-03-03T06:45:14.419Z,962.12
2019-03-03T06:46:14.354Z,962.10
2019-03-03T06:47:14.290Z,962.08
2019-03-03T06:48:14.227Z,962.09
2019-03-03T06:49:14.154Z,962.08
2019-03-03T06:50:14.096Z,962.04
2019-03-03T06:51:14.031Z,962.05
2019-03-03T06:52:13.962Z,962.06
2019-03-03T06:53:13.902Z,962.01
2019-03-03T06:54:13.834Z,961.99
2019-03-03T06:55:13.770Z,961.91
2019-03-03T06:56:13.704Z,961.96
2019-03-03T06:57:13.637Z,961.98
2019-03-03T06:58:13.573Z,961.99
2019-03-03T06:59:13.503Z,962.00
2019-03-03T07:00:13.442Z,961.96
2019-03-03T07:01:13.384Z,961.99
2019-03-03T07:02:13.314Z,962.01
2019-03-03T07:03:13.245Z,961.94
2019-03-03T07:04:13.184Z,961.95
2019-03-03T07:05:13.116Z,961.95
2019-03-03T07:06:13.057Z,961.92
2019-03-03T07:07:12.988Z,962.00
2019-03-03T07:08:12.933Z,961.96
2019-03-03T07:09:12.851Z,961.94
2019-03-03T07:10:12.798Z,961.92
2019-03-03T07:11:12.725Z,961.96
2019-03-03T07:12:12.657Z,961.93
2019-03-03T07:13:12.596Z,961.99
2019-03-03T07:14:12.532Z,962.02
2019-03-03T07:15:12.466Z,962.00
2019-03-03T07:16:12.400Z,961.97
2019-03-03T07:17:12.345Z,961.93
2019-03-03T07:18:12.273Z,962.04
2019-03-03T07:19:12.203Z,962.02
2019-03-03T07:20:12.140Z,962.01
2019-03-03T07:21:12.076Z,962.05
2019-03-03T07:22:12.008Z,962.06
2019-03-03T07:23:11.945Z,962.04
2019-03-03T07:24:11.881Z,962.06
2019-03-03T07:25:11.819Z,962.08
2019-03-03T07:26:11.762Z,962.08
2019-03-03T07:27:11.683Z,962.08
2019-03-03T07:28:11.627Z,962.08
2019-03-03T07:29:11.554Z,962.14
2019-03-03T07:30:11.485Z,962.19
2019-03-03T07:31:11.429Z,962.19
2019-03-03T07:32:11.368Z,962.19
2019-03-03T07:33:11.298Z,962.22
2019-03-03T07:34:11.232Z,962.23
2019-03-03T07:35:11.170Z,962.30
2019-03-03T07:36:11.107Z,962.28
2019-03-03T07:37:11.036Z,962.31
2019-03-03T07:38:10.986Z,962.31
2019-03-03T07:39:10.910Z,962.32
2019-03-03T07:40:10.841Z,962.36
2019-03-03T07:41:10.776Z,962.36
2019-03-03T07:42:10.711Z,962.32
2019-03-03T07:43:10.650Z,962.33
2019-03-03T07:44:10.583Z,962.32
2019-03-03T07:45:10.527Z,962.30
2019-03-03T07:46:10.448Z,962.35
2019-03-03T07:47:10.388Z,962.29
2019-03-03T07:48:10.347Z,962.33
2019-03-03T07:49:10.259Z,962.30
2019-03-03T07:50:10.198Z,962.32
2019-03-03T07:51:10.131Z,962.35
2019-03-03T07:52:10.063Z,962.30
2019-03-03T07:53:10.005Z,962.35
2019-03-03T07:54:09.936Z,962.33
2019-03-03T07:55:09.871Z,962.28
2019-03-03T07:56:09.806Z,962.28
2019-03-03T07:57:09.748Z,962.26
2019-03-03T07:58:09.727Z,962.26
2019-03-03T07:59:09.612Z,962.27
2019-03-03T08:00:09.551Z,962.26
2019-03-03T08:01:09.516Z,962.23
2019-03-03T08:02:09.427Z,962.29
2019-03-03T08:03:09.357Z,962.31
2019-03-03T08:04:09.295Z,962.29
2019-03-03T08:05:09.228Z,962.29
2019-03-03T08:06:09.164Z,962.23
2019-03-03T08:07:09.110Z,962.25
2019-03-03T08:08:09.045Z,962.31
2019-03-03T08:09:08.971Z,962.22
2019-03-03T08:10:08.906Z,962.24
2019-03-03T08:11:08.843Z,962.20
2019-03-03T08:12:08.785Z,962.19
2019-03-03T08:13:09.427Z,962.13
2019-03-03T08:14:08.651Z,962.10
2019-03-03T08:15:08.585Z,962.10
2019-03-03T08:16:10.780Z,962.08
2019-03-03T08:17:08.460Z,962.13
2019-03-03T08:18:08.429Z,961.99
2019-03-03T08:19:08.329Z,962.05
2019-03-03T08:20:08.265Z,962.02
2019-03-03T08:21:08.203Z,962.08
2019-03-03T08:22:08.134Z,961.99
2019-03-03T08:23:08.071Z,962.01
2019-03-03T08:24:08.010Z,962.00
2019-03-03T08:25:07.943Z,962.08
2019-03-03T08:26:07.880Z,962.06
2019-03-03T08:27:07.819Z,962.03
2019-03-03T08:28:07.749Z,962.04
2019-03-03T08:29:07.682Z,962.01
2019-03-03T08:30:07.636Z,962.03
2019-03-03T08:31:07.554Z,961.99
2019-03-03T08:32:07.492Z,961.99
2019-03-03T08:33:07.429Z,962.06
2019-03-03T08:34:07.368Z,962.05
2019-03-03T08:35:07.301Z,962.04
2019-03-03T08:36:07.235Z,962.02
2019-03-03T08:37:07.170Z,961.89
2019-03-03T08:38:07.105Z,961.94
2019-03-03T08:39:07.050Z,961.94
2019-03-03T08:40:06.985Z,961.95
2019-03-03T08:41:06.924Z,961.93
2019-03-03T08:42:06.847Z,961.89
2019-03-03T08:43:06.784Z,961.87
2019-03-03T08:44:06.733Z,961.91
2019-03-03T08:45:06.656Z,961.85
2019-03-03T08:46:06.594Z,961.86
2019-03-03T08:47:06.526Z,961.82
2019-03-03T08:48:06.469Z,961.77
2019-03-03T08:49:06.401Z,961.81
2019-03-03T08:50:06.335Z,961.80
2019-03-03T08:51:06.271Z,961.80
2019-03-03T08:52:06.204Z,961.90
2019-03-03T08:53:06.156Z,961.84
2019-03-03T08:54:06.088Z,961.82
2019-03-03T08:55:06.011Z,961.82
2019-03-03T08:56:05.951Z,961.76
2019-03-03T08:57:05.887Z,961.79
2019-03-03T08:58:05.822Z,961.78
2019-03-03T08:59:05.755Z,961.82
2019-03-03T09:00:05.690Z,961.79
2019-03-03T09:01:05.629Z,961.76
2019-03-03T09:02:05.576Z,961.70
2019-03-03T09:03:05.502Z,961.67
2019-03-03T09:04:05.444Z,961.65
2019-03-03T09:05:05.368Z,961.68
2019-03-03T09:06:05.308Z,961.69
2019-03-03T09:07:05.244Z,961.68
2019-03-03T09:08:05.180Z,961.68
2019-03-03T09:09:05.117Z,961.71
2019-03-03T09:10:05.052Z,961.75
2019-03-03T09:11:04.992Z,961.72
2019-03-03T09:12:04.925Z,961.73
2019-03-03T09:13:04.858Z,961.77
2019-03-03T09:14:04.795Z,961.63
2019-03-03T09:15:04.754Z,961.64
2019-03-03T09:16:04.675Z,961.73
2019-03-03T09:17:04.602Z,961.73
2019-03-03T09:18:04.538Z,961.75
2019-03-03T09:19:04.475Z,961.78
2019-03-03T09:20:04.415Z,961.74
2019-03-03T09:21:04.347Z,961.82
2019-03-03T09:22:04.810Z,961.79
2019-03-03T09:23:04.225Z,961.80
2019-03-03T09:24:04.155Z,961.76
2019-03-03T09:25:04.090Z,961.80
2019-03-03T09:26:04.027Z,961.85
2019-03-03T09:27:03.963Z,961.88
2019-03-03T09:28:03.899Z,961.86
2019-03-03T09:29:03.839Z,961.80
2019-03-03T09:30:03.770Z,961.97
2019-03-03T09:31:03.702Z,961.87
2019-03-03T09:32:03.643Z,961.85
2019-03-03T09:33:03.597Z,961.83
2019-03-03T09:34:03.513Z,961.85
2019-03-03T09:35:03.450Z,961.91
2019-03-03T09:36:03.387Z,961.93
2019-03-03T09:37:03.323Z,961.97
2019-03-03T09:38:03.259Z,961.87
2019-03-03T09:39:03.202Z,961.93
2019-03-03T09:40:09.326Z,961.92
2019-03-03T09:41:03.061Z,961.94
2019-03-03T09:42:03.011Z,961.92
2019-03-03T09:43:02.943Z,961.91
2019-03-03T09:44:02.873Z,961.88
2019-03-03T09:45:02.808Z,961.88
2019-03-03T09:46:02.750Z,961.90
2019-03-03T09:47:02.685Z,961.82
2019-03-03T09:48:02.621Z,961.87
2019-03-03T09:49:02.555Z,961.86
2019-03-03T09:50:02.495Z,961.86
2019-03-03T09:51:02.430Z,961.81
2019-03-03T09:52:02.362Z,961.84
2019-03-03T09:53:02.304Z,961.81
2019-03-03T09:54:02.251Z,961.85
2019-03-03T09:55:02.176Z,961.88
2019-03-03T09:56:02.112Z,961.96
2019-03-03T09:57:02.048Z,961.91
2019-03-03T09:58:01.987Z,961.95
2019-03-03T09:59:01.941Z,961.91
2019-03-03T10:00:01.859Z,961.91
2019-03-03T10:01:01.794Z,961.90
2019-03-03T10:02:01.731Z,961.96
2019-03-03T10:03:01.668Z,961.92
2019-03-03T10:04:01.607Z,961.84
2019-03-03T10:05:01.544Z,961.88
2019-03-03T10:06:01.477Z,961.84
2019-03-03T10:07:01.414Z,961.77
2019-03-03T10:08:01.353Z,961.73
2019-03-03T10:09:01.286Z,961.82
2019-03-03T10:10:01.227Z,961.73
2019-03-03T10:11:01.160Z,961.74
2019-03-03T10:12:01.108Z,961.75
2019-03-03T10:13:01.035Z,961.72
2019-03-03T10:14:00.969Z,961.77
2019-03-03T10:15:00.913Z,961.76
2019-03-03T10:16:00.840Z,961.71
2019-03-03T10:17:00.781Z,961.69
2019-03-03T10:18:00.716Z,961.74
2019-03-03T10:19:07.138Z,961.76
2019-03-03T10:20:00.589Z,961.75
2019-03-03T10:21:00.530Z,961.78
2019-03-03T10:22:00.464Z,961.73
2019-03-03T10:23:00.401Z,961.68
2019-03-03T10:24:00.337Z,961.75
2019-03-03T10:25:00.309Z,961.75
2019-03-03T10:26:00.214Z,961.72
2019-03-03T10:27:00.148Z,961.72
2019-03-03T10:28:00.086Z,961.75
2019-03-03T10:29:00.029Z,961.74
2019-03-03T10:29:59.967Z,961.75
2019-03-03T10:30:59.943Z,961.68
2019-03-03T10:31:59.831Z,961.78
2019-03-03T10:32:59.767Z,961.76
2019-03-03T10:33:59.710Z,961.71
2019-03-03T10:34:59.644Z,961.75
2019-03-03T10:35:59.582Z,961.74
2019-03-03T10:36:59.518Z,961.74
2019-03-03T10:37:59.457Z,961.72
2019-03-03T10:38:59.391Z,961.71
2019-03-03T10:39:59.335Z,961.76
2019-03-03T10:40:59.261Z,961.74
2019-03-03T10:41:59.201Z,961.73
2019-03-03T10:42:59.145Z,961.70
2019-03-03T10:43:59.085Z,961.67
2019-03-03T10:44:59.020Z,961.67
2019-03-03T10:45:58.944Z,961.67
2019-03-03T10:46:58.886Z,961.72
2019-03-03T10:47:58.824Z,961.65
2019-03-03T10:48:58.762Z,961.66
2019-03-03T10:49:58.701Z,961.61
2019-03-03T10:50:58.630Z,961.72
2019-03-03T10:51:58.572Z,961.70
2019-03-03T10:52:58.516Z,961.67
2019-03-03T10:53:58.444Z,961.72
2019-03-03T10:54:58.383Z,961.66
2019-03-03T10:55:58.335Z,961.69
2019-03-03T10:56:58.251Z,961.68
2019-03-03T10:57:58.215Z,961.72
2019-03-03T10:58:58.129Z,961.78
2019-03-03T10:59:58.067Z,961.68
2019-03-03T11:00:58.005Z,961.72
2019-03-03T11:01:57.946Z,961.75
2019-03-03T11:02:57.876Z,961.75
2019-03-03T11:03:57.816Z,961.72
2019-03-03T11:04:57.750Z,961.75
2019-03-03T11:05:57.690Z,961.66
2019-03-03T11:06:57.630Z,961.68
2019-03-03T11:07:57.566Z,961.68
2019-03-03T11:08:57.499Z,961.67
2019-03-03T11:09:57.440Z,961.65
2019-03-03T11:10:57.935Z,961.57
2019-03-03T11:11:57.323Z,961.61
2019-03-03T11:12:57.247Z,961.58
2019-03-03T11:13:57.220Z,961.50
2019-03-03T11:14:57.137Z,961.49
2019-03-03T11:15:57.061Z,961.35
2019-03-03T11:16:56.998Z,961.40
2019-03-03T11:17:56.956Z,961.40
2019-03-03T11:18:56.874Z,961.47
2019-03-03T11:19:56.812Z,961.53
2019-03-03T11:20:56.749Z,961.52
2019-03-03T11:21:56.685Z,961.49
2019-03-03T11:22:56.623Z,961.47
2019-03-03T11:23:56.567Z,961.44
2019-03-03T11:24:56.496Z,961.44
2019-03-03T11:25:56.435Z,961.48
2019-03-03T11:26:56.373Z,961.53
2019-03-03T11:27:56.305Z,961.46
2019-03-03T11:28:56.250Z,961.51
2019-03-03T11:29:56.183Z,961.46
2019-03-03T11:30:56.119Z,961.47
2019-03-03T11:31:56.053Z,961.43
2019-03-03T11:32:55.995Z,961.48
2019-03-03T11:33:55.947Z,961.47
2019-03-03T11:34:55.868Z,961.44
2019-03-03T11:35:55.805Z,961.31
2019-03-03T11:36:55.749Z,961.34
2019-03-03T11:37:55.679Z,961.38
2019-03-03T11:38:55.617Z,961.39
2019-03-03T11:39:55.559Z,961.37
2019-03-03T11:40:55.492Z,961.27
2019-03-03T11:41:55.427Z,961.30
2019-03-03T11:42:55.368Z,961.29
2019-03-03T11:43:55.302Z,961.31
2019-03-03T11:44:55.244Z,961.23
2019-03-03T11:45:55.187Z,961.20
2019-03-03T11:46:55.115Z,961.19
2019-03-03T11:48:03.883Z,961.22
2019-03-03T11:48:55.015Z,961.19
2019-03-03T11:49:54.926Z,961.16
2019-03-03T11:50:54.868Z,961.15
2019-03-03T11:51:54.800Z,961.08
2019-03-03T11:52:54.732Z,961.05
2019-03-03T11:53:54.669Z,961.09
2019-03-03T11:54:54.613Z,961.10
2019-03-03T11:55:54.547Z,961.06
2019-03-03T11:56:54.485Z,961.05
2019-03-03T11:57:54.423Z,961.02
2019-03-03T11:58:54.365Z,961.05
2019-03-03T11:59:54.295Z,961.04
2019-03-03T12:00:54.235Z,961.05
2019-03-03T12:01:54.190Z,961.06
2019-03-03T12:02:54.300Z,961.02
2019-03-03T12:03:54.050Z,961.17
2019-03-03T12:04:53.983Z,961.10
2019-03-03T12:05:53.921Z,961.12
2019-03-03T12:06:53.879Z,961.12
2019-03-03T12:07:53.796Z,961.15
2019-03-03T12:08:53.737Z,961.15
2019-03-03T12:09:53.670Z,961.12
2019-03-03T12:10:53.608Z,961.12
2019-03-03T12:11:53.549Z,961.11
2019-03-03T12:12:53.492Z,961.06
2019-03-03T12:13:53.429Z,961.06
2019-03-03T12:14:53.359Z,960.97
2019-03-03T12:15:53.301Z,960.97
2019-03-03T12:16:53.235Z,960.97
2019-03-03T12:17:53.169Z,960.95
2019-03-03T12:18:53.106Z,961.00
2019-03-03T12:19:53.051Z,960.94
2019-03-03T12:20:52.985Z,960.93
2019-03-03T12:21:52.916Z,960.96
2019-03-03T12:22:52.871Z,960.91
2019-03-03T12:23:52.801Z,960.97
2019-03-03T12:24:52.727Z,960.90
2019-03-03T12:25:52.693Z,960.89
2019-03-03T12:26:52.608Z,960.94
2019-03-03T12:27:52.545Z,961.01